createdAt,value
2024-05-09T00:01:30.306Z,10.91
2024-05-09T00:06:33.173Z,10.85
2024-05-09T00:11:36.296Z,10.75
2024-05-09T00:16:39.892Z,10.65
2024-05-09T00:21:45.837Z,10.63
2024-05-09T00:26:48.736Z,10.60
2024-05-09T00:31:51.983Z,10.53
2024-05-09T00:36:55.038Z,10.45
2024-05-09T00:42:00.216Z,10.35
2024-05-09T00:47:03.976Z,10.34
2024-05-09T00:52:07.643Z,10.32
2024-05-09T00:57:10.675Z,10.28
2024-05-09T01:02:16.250Z,10.23
2024-05-09T01:07:19.123Z,10.17
2024-05-09T01:12:22.070Z,10.12
2024-05-09T01:17:25.752Z,10.04
2024-05-09T01:22:30.635Z,9.97
2024-05-09T01:27:33.476Z,9.87
2024-05-09T01:32:36.430Z,9.85
2024-05-09T01:37:40.300Z,9.79
2024-05-09T01:42:42.967Z,9.73
2024-05-09T01:47:46.038Z,9.69
2024-05-09T01:52:49.155Z,9.58
2024-05-09T01:57:52.060Z,9.56
2024-05-09T02:02:55.022Z,9.50
2024-05-09T02:07:58.154Z,9.47
2024-05-09T02:13:01.253Z,9.38
2024-05-09T02:18:05.078Z,9.32
2024-05-09T02:23:09.568Z,9.30
2024-05-09T02:28:12.706Z,9.30
2024-05-09T02:33:16.083Z,9.32
2024-05-09T02:38:19.137Z,9.33
2024-05-09T02:43:22.402Z,9.32
2024-05-09T02:48:25.387Z,9.32
2024-05-09T02:53:28.420Z,9.29
2024-05-09T02:58:31.377Z,9.24
2024-05-09T03:03:34.479Z,9.21
2024-05-09T03:08:37.659Z,9.18
2024-05-09T03:13:41.754Z,9.14
2024-05-09T03:18:45.418Z,9.09
2024-05-09T03:23:48.314Z,9.05
2024-05-09T03:28:51.196Z,8.97
2024-05-09T03:33:54.177Z,8.87
2024-05-09T03:38:57.124Z,8.90
2024-05-09T03:44:00.169Z,8.93
2024-05-09T03:49:03.348Z,9.02
2024-05-09T03:54:06.583Z,9.11
2024-05-09T03:59:09.431Z,9.20
2024-05-09T04:04:12.445Z,9.31
2024-05-09T04:09:15.371Z,9.42
2024-05-09T04:14:18.222Z,9.59
2024-05-09T04:19:21.283Z,9.75
2024-05-09T04:24:24.445Z,9.91
2024-05-09T04:29:27.441Z,10.09
2024-05-09T04:34:30.561Z,10.24
2024-05-09T04:39:33.496Z,10.42
2024-05-09T04:44:36.376Z,10.66
2024-05-09T04:49:43.189Z,11.07
2024-05-09T04:54:46.385Z,11.64
2024-05-09T04:59:49.655Z,12.13
2024-05-09T05:04:53.791Z,12.58
2024-05-09T05:09:56.797Z,13.08
2024-05-09T05:14:59.648Z,13.54
2024-05-09T05:20:03.006Z,13.92
2024-05-09T05:25:07.386Z,14.31
2024-05-09T05:30:17.553Z,14.66
2024-05-09T05:35:24.371Z,14.92
2024-05-09T05:40:33.504Z,15.16
2024-05-09T05:45:39.952Z,15.30
2024-05-09T05:50:43.899Z,15.49
2024-05-09T05:55:46.954Z,15.69
2024-05-09T06:00:53.019Z,15.87
2024-05-09T06:05:56.517Z,16.00
2024-05-09T06:10:59.746Z,16.14
2024-05-09T06:16:05.033Z,16.32
2024-05-09T06:21:08.134Z,16.48
2024-05-09T06:26:11.288Z,16.61
2024-05-09T06:31:14.463Z,16.65
2024-05-09T06:36:17.562Z,16.69
2024-05-09T06:41:20.644Z,16.75
2024-05-09T06:46:23.792Z,16.71
2024-05-09T06:51:27.084Z,16.72
2024-05-09T06:56:30.018Z,16.77
2024-05-09T07:01:33.221Z,16.72
2024-05-09T07:06:36.201Z,16.49
2024-05-09T07:11:39.488Z,16.10
2024-05-09T07:16:42.655Z,15.94
2024-05-09T07:21:45.619Z,15.97
2024-05-09T07:26:48.633Z,15.83
2024-05-09T07:31:51.778Z,15.72
2024-05-09T07:36:54.838Z,15.66
2024-05-09T07:41:57.765Z,15.74
2024-05-09T07:57:13.000Z,15.72
2024-05-09T08:02:16.203Z,15.58
2024-05-09T08:07:20.186Z,15.74
2024-05-09T08:12:23.343Z,15.87
2024-05-09T08:17:26.327Z,15.92
2024-05-09T08:22:32.624Z,15.92
2024-05-09T08:27:37.013Z,15.93
2024-05-09T08:32:40.771Z,15.89
2024-05-09T08:37:43.959Z,15.99
2024-05-09T08:42:52.435Z,16.08
2024-05-09T08:47:59.706Z,16.13
2024-05-09T08:53:02.846Z,16.02
2024-05-09T08:58:07.556Z,15.94
2024-05-09T09:03:17.728Z,16.02
2024-05-09T09:08:22.495Z,15.91
2024-05-09T09:13:26.672Z,15.95
2024-05-09T09:18:33.216Z,16.09
2024-05-09T09:23:36.523Z,16.12
2024-05-09T09:28:40.868Z,16.13
2024-05-09T09:33:44.358Z,16.16
2024-05-09T09:38:48.501Z,16.13
2024-05-09T09:43:53.497Z,16.19
2024-05-09T09:48:57.225Z,16.23
2024-05-09T09:54:03.585Z,16.31
2024-05-09T09:59:08.725Z,16.45
2024-05-09T10:04:19.141Z,16.53
2024-05-09T10:09:23.328Z,16.61
2024-05-09T10:14:26.963Z,16.66
2024-05-09T10:19:30.010Z,16.74
2024-05-09T10:24:50.436Z,16.79
2024-05-09T10:30:02.822Z,16.85
2024-05-09T10:35:15.070Z,16.91
2024-05-09T10:40:26.548Z,16.92
2024-05-09T10:45:35.925Z,16.95
2024-05-09T10:50:43.724Z,16.97
2024-05-09T10:56:00.143Z,17.04
2024-05-09T11:01:06.772Z,17.09
2024-05-09T11:06:11.602Z,17.15
2024-05-09T11:11:15.755Z,17.21
2024-05-09T11:16:21.251Z,17.27
2024-05-09T11:21:25.128Z,17.28
2024-05-09T11:26:29.618Z,17.35
2024-05-09T11:31:33.122Z,17.40
2024-05-09T11:36:36.332Z,17.43
2024-05-09T11:41:39.530Z,17.43
2024-05-09T11:46:43.576Z,17.47
2024-05-09T11:51:46.436Z,17.53
2024-05-09T11:56:51.666Z,17.60
2024-05-09T12:01:54.936Z,17.63
2024-05-09T12:06:58.033Z,17.68
2024-05-09T12:12:01.223Z,17.63
2024-05-09T12:17:05.768Z,17.66
2024-05-09T12:22:08.914Z,17.72
2024-05-09T12:27:12.123Z,17.81
2024-05-09T12:32:15.124Z,17.85
2024-05-09T12:37:19.223Z,17.82
2024-05-09T12:42:27.089Z,17.92
2024-05-09T12:47:31.657Z,17.95
2024-05-09T12:52:34.575Z,18.00
2024-05-09T12:57:37.618Z,18.02
2024-05-09T13:02:43.122Z,18.02
2024-05-09T13:07:47.069Z,18.07
2024-05-09T13:12:50.148Z,18.11
2024-05-09T13:17:53.526Z,18.12
2024-05-09T13:22:56.588Z,18.13
2024-05-09T13:27:59.748Z,18.16
2024-05-09T13:33:02.830Z,18.17
2024-05-09T13:38:06.027Z,18.19
2024-05-09T13:43:09.344Z,18.24
2024-05-09T13:48:12.890Z,18.25
2024-05-09T13:53:16.174Z,18.29
2024-05-09T13:58:19.375Z,18.31
2024-05-09T14:03:22.658Z,18.30
2024-05-09T14:08:26.118Z,18.24
2024-05-09T14:13:29.106Z,18.23
2024-05-09T14:18:32.516Z,18.26
2024-05-09T14:23:35.705Z,18.28
2024-05-09T14:28:38.712Z,18.26
2024-05-09T14:33:41.919Z,18.28
2024-05-09T14:38:44.820Z,18.30
2024-05-09T14:43:47.621Z,18.30
2024-05-09T14:48:51.669Z,18.27
2024-05-09T14:53:54.752Z,18.26
2024-05-09T14:58:58.071Z,18.21
2024-05-09T15:04:02.548Z,18.18
2024-05-09T15:09:07.668Z,18.17
2024-05-09T15:14:10.690Z,18.14
2024-05-09T15:19:13.805Z,18.10
2024-05-09T15:24:16.977Z,18.08
2024-05-09T15:29:19.977Z,18.08
2024-05-09T15:34:23.002Z,18.09
2024-05-09T15:39:28.366Z,18.10
2024-05-09T15:44:31.448Z,18.09
2024-05-09T15:49:34.761Z,18.05
2024-05-09T15:54:37.981Z,18.02
2024-05-09T15:59:41.084Z,17.97
2024-05-09T16:04:44.098Z,17.92
2024-05-09T16:09:47.538Z,17.85
2024-05-09T16:14:51.370Z,17.80
2024-05-09T16:19:55.583Z,17.76
2024-05-09T16:24:58.683Z,17.69
2024-05-09T16:30:05.450Z,17.64
2024-05-09T16:35:10.596Z,17.60
2024-05-09T16:40:22.066Z,17.56
2024-05-09T16:45:33.578Z,17.52
2024-05-09T16:50:37.503Z,17.47
2024-05-09T16:55:40.741Z,17.42
2024-05-09T17:00:44.523Z,17.38
2024-05-09T17:05:50.754Z,17.33
2024-05-09T17:10:54.181Z,17.28
2024-05-09T17:15:57.522Z,17.23
2024-05-09T17:21:00.375Z,17.16
2024-05-09T17:26:03.703Z,17.09
2024-05-09T17:31:07.435Z,16.97
2024-05-09T17:36:10.607Z,16.85
2024-05-09T17:41:13.640Z,16.72
2024-05-09T17:46:17.065Z,16.60
2024-05-09T17:51:20.239Z,16.50
2024-05-09T17:56:23.646Z,16.39
2024-05-09T18:01:26.513Z,16.29
2024-05-09T18:06:29.786Z,16.19
2024-05-09T18:11:32.882Z,16.08
2024-05-09T18:16:36.135Z,15.95
2024-05-09T18:21:39.382Z,15.82
2024-05-09T18:26:42.492Z,15.66
2024-05-09T18:31:45.504Z,15.52
2024-05-09T18:36:48.749Z,15.36
2024-05-09T18:41:51.601Z,15.21
2024-05-09T18:46:55.144Z,15.04
2024-05-09T18:51:58.298Z,14.87
2024-05-09T18:57:01.333Z,14.74
2024-05-09T19:02:04.902Z,14.63
2024-05-09T19:07:08.741Z,14.53
2024-05-09T19:12:11.912Z,14.43
2024-05-09T19:17:15.276Z,14.33
2024-05-09T19:22:18.403Z,14.23
2024-05-09T19:27:24.410Z,14.13
2024-05-09T19:32:27.440Z,14.02
2024-05-09T19:37:31.822Z,13.93
2024-05-09T19:42:34.829Z,13.84
2024-05-09T19:47:38.048Z,13.73
2024-05-09T19:52:42.394Z,13.61
2024-05-09T19:57:45.425Z,13.52
2024-05-09T20:02:48.692Z,13.45
2024-05-09T20:07:51.887Z,13.36
2024-05-09T20:12:54.925Z,13.27
2024-05-09T20:17:58.381Z,13.16
2024-05-09T20:23:04.799Z,13.08
2024-05-09T20:28:08.163Z,13.00
2024-05-09T20:33:12.633Z,12.94
2024-05-09T20:38:15.848Z,12.89
2024-05-09T20:43:19.060Z,12.79
2024-05-09T20:48:22.330Z,12.69
2024-05-09T20:53:25.480Z,12.62
2024-05-09T20:58:29.231Z,12.53
2024-05-09T21:03:32.755Z,12.46
2024-05-09T21:08:36.352Z,12.38
2024-05-09T21:13:39.333Z,12.33
2024-05-09T21:18:42.397Z,12.27
2024-05-09T21:23:45.784Z,12.20
2024-05-09T21:28:48.852Z,12.14
2024-05-09T21:33:52.069Z,12.06
2024-05-09T21:38:55.266Z,11.99
2024-05-09T21:43:58.271Z,11.81
2024-05-09T21:49:01.223Z,11.72
2024-05-09T21:54:04.299Z,11.69
2024-05-09T21:59:07.300Z,11.64
2024-05-09T22:04:11.110Z,11.59
2024-05-09T22:09:14.416Z,11.55
2024-05-09T22:14:17.428Z,11.52
2024-05-09T22:19:21.642Z,11.48
2024-05-09T22:24:25.084Z,11.42
2024-05-09T22:35:30.844Z,11.34
2024-05-09T22:40:44.791Z,11.31
2024-05-09T22:45:52.683Z,11.26
2024-05-09T22:50:56.077Z,11.18
2024-05-09T22:55:59.242Z,11.10
2024-05-09T23:01:02.647Z,11.04
2024-05-09T23:06:06.827Z,10.97
2024-05-09T23:11:10.160Z,10.89
2024-05-09T23:16:13.909Z,10.82
2024-05-09T23:21:17.007Z,10.75
2024-05-09T23:26:20.189Z,10.67
2024-05-09T23:31:23.572Z,10.59
2024-05-09T23:36:30.483Z,10.50
2024-05-09T23:41:33.712Z,10.42
2024-05-09T23:46:37.000Z,10.38
2024-05-09T23:51:40.576Z,10.36
2024-05-09T23:56:43.991Z,10.32
